Time;durP1;ratioP1;P1;durP2;ratioP2;P2;SDS_P1;SDS_P2;PMS_P1;PMS_P2;Temp;Humidity;BMP_temperature;BMP_pressure;BME280_temperature;BME280_humidity;BME280_pressure;Samples;Min_cycle;Max_cycle;Signal;HPM_P1;HPM_P2
2022/12/25 00:01:06;;;;;;;20.38;15.25;;;;;;;19.53;64.24;99306.06;5040846;28;20021;-69
2022/12/25 00:03:32;;;;;;;23.90;16.70;;;;;;;19.53;64.30;99297.25;5040745;28;20108;-70
2022/12/25 00:05:58;;;;;;;21.35;16.27;;;;;;;19.53;64.34;99284.03;5046734;28;20491;-72
2022/12/25 00:08:24;;;;;;;22.17;15.35;;;;;;;19.55;64.25;99266.25;5044023;28;20381;-71
2022/12/25 00:10:57;;;;;;;24.40;16.23;;;;;;;19.53;64.38;99252.25;5050083;28;20036;-71
2022/12/25 00:13:22;;;;;;;23.20;16.15;;;;;;;19.53;64.43;99246.97;5041393;28;20397;-72
2022/12/25 00:15:48;;;;;;;22.52;15.90;;;;;;;19.53;64.23;99242.53;5042207;28;20045;-71
2022/12/25 00:18:13;;;;;;;23.50;15.82;;;;;;;19.53;64.38;99242.53;5043382;28;20021;-72
2022/12/25 00:20:38;;;;;;;21.33;15.05;;;;;;;19.53;64.46;99237.25;5047658;28;20052;-71
2022/12/25 00:23:04;;;;;;;19.63;15.18;;;;;;;19.52;64.61;99235.53;5046928;28;20362;-72
2022/12/25 00:25:29;;;;;;;21.55;14.85;;;;;;;19.52;64.44;99238.16;5039764;28;20025;-72
2022/12/25 00:27:54;;;;;;;18.70;13.93;;;;;;;19.52;64.38;99235.53;5049215;28;20021;-75
2022/12/25 00:30:20;;;;;;;19.45;13.23;;;;;;;19.56;64.27;99230.91;5044591;28;20082;-72
2022/12/25 00:32:45;;;;;;;20.17;13.60;;;;;;;19.51;64.44;99217.94;5055710;28;20017;-74
2022/12/25 00:35:11;;;;;;;18.95;13.00;;;;;;;19.52;64.27;99224.09;5051140;28;20017;-73
2022/12/25 00:37:36;;;;;;;20.83;13.50;;;;;;;19.52;64.24;99214.34;5051822;28;20079;-74
2022/12/25 00:40:02;;;;;;;18.23;13.45;;;;;;;19.51;64.16;99212.66;5046171;28;20063;-73
2022/12/25 00:42:27;;;;;;;17.17;12.73;;;;;;;19.51;63.99;99215.28;5047118;28;20017;-73
2022/12/25 00:44:53;;;;;;;17.00;12.93;;;;;;;19.50;64.18;99215.38;5054965;28;20388;-71
2022/12/25 00:47:18;;;;;;;19.45;12.48;;;;;;;19.51;64.07;99215.28;5051784;28;20026;-72
2022/12/25 00:49:44;;;;;;;14.73;11.52;;;;;;;19.50;64.28;99203.00;5045323;28;20028;-70
2022/12/25 00:52:09;;;;;;;19.75;13.00;;;;;;;19.51;64.35;99195.94;5054666;28;20228;-70
2022/12/25 00:54:35;;;;;;;18.67;12.00;;;;;;;19.49;64.34;99192.50;5053715;28;20065;-70
2022/12/25 00:57:00;;;;;;;18.13;11.70;;;;;;;19.50;64.22;99200.38;5054807;28;20447;-70
2022/12/25 00:59:29;;;;;;;19.55;11.80;;;;;;;19.51;64.18;99198.59;5055463;28;20028;-70
2022/12/25 01:01:54;;;;;;;14.80;11.18;;;;;;;19.49;64.35;99188.09;5054373;28;20580;-70
2022/12/25 01:04:20;;;;;;;18.05;12.27;;;;;;;19.51;64.52;99183.53;5055381;28;20107;-70
2022/12/25 01:06:45;;;;;;;19.27;10.93;;;;;;;19.52;64.37;99185.22;5055167;28;20025;-71
2022/12/25 01:11:54;;;;;;;15.65;11.82;;;;;;;19.51;64.48;99175.59;5055325;28;20484;-70
2022/12/25 01:14:20;;;;;;;16.15;11.00;;;;;;;19.52;64.38;99171.16;5055408;28;20029;-70
2022/12/25 01:16:45;;;;;;;15.32;10.55;;;;;;;19.49;64.28;99166.91;5055179;28;20049;-70
2022/12/25 01:19:11;;;;;;;14.82;10.68;;;;;;;19.52;64.42;99172.00;5055193;28;20078;-70
2022/12/25 01:21:36;;;;;;;14.60;10.45;;;;;;;19.52;64.25;99165.88;5055028;28;20154;-69
2022/12/25 01:24:02;;;;;;;13.80;10.20;;;;;;;19.49;64.41;99163.41;5053886;28;20025;-69
2022/12/25 01:26:27;;;;;;;14.73;10.38;;;;;;;19.50;64.21;99157.16;5055041;28;20166;-70
2022/12/25 01:28:53;;;;;;;15.32;10.32;;;;;;;19.50;64.21;99152.72;5055103;28;20082;-70
2022/12/25 01:31:22;;;;;;;13.55;9.65;;;;;;;19.50;63.84;99150.09;5055081;28;20021;-70
2022/12/25 01:33:48;;;;;;;14.10;9.07;;;;;;;19.49;63.85;99139.59;5055037;28;20371;-70
2022/12/25 01:36:15;;;;;;;12.55;9.35;;;;;;;19.51;63.85;99137.72;5054563;28;20114;-68
2022/12/25 01:38:42;;;;;;;12.77;9.10;;;;;;;19.49;64.16;99129.88;5053678;28;20083;-70
2022/12/25 01:41:07;;;;;;;12.40;9.00;;;;;;;19.50;63.79;99128.91;5054894;28;20033;-70
2022/12/25 01:43:33;;;;;;;13.43;8.35;;;;;;;19.50;63.71;99128.91;5054593;28;20098;-70
2022/12/25 01:46:02;;;;;;;12.88;9.00;;;;;;;19.47;63.67;99126.47;5054625;28;20024;-70
2022/12/25 01:48:33;;;;;;;12.10;8.45;;;;;;;19.49;63.68;99135.16;5054408;28;20029;-70
2022/12/25 01:51:04;;;;;;;11.02;8.77;;;;;;;19.47;63.50;99134.41;5054615;28;20017;-70
2022/12/25 01:53:30;;;;;;;13.70;8.20;;;;;;;19.49;63.36;99129.88;5054378;28;20052;-69
2022/12/25 01:56:00;;;;;;;11.75;7.82;;;;;;;19.49;63.52;99139.59;5054609;28;20053;-70
2022/12/25 01:58:25;;;;;;;10.68;7.40;;;;;;;19.46;63.49;99135.31;5054519;28;20538;-70
2022/12/25 02:00:52;;;;;;;10.65;7.93;;;;;;;19.45;63.45;99138.91;5054566;28;20025;-70
2022/12/25 02:03:19;;;;;;;11.07;7.70;;;;;;;19.44;63.50;99143.38;5054110;28;20056;-70
2022/12/25 02:05:45;;;;;;;10.52;7.78;;;;;;;19.43;63.42;99131.06;5054439;28;20028;-70
2022/12/25 02:08:14;;;;;;;9.82;7.47;;;;;;;19.45;63.62;99136.28;5053960;28;20043;-70
2022/12/25 02:10:41;;;;;;;9.32;6.85;;;;;;;19.41;63.67;99137.38;5049817;28;20017;-69
2022/12/25 02:13:07;;;;;;;10.45;7.60;;;;;;;19.43;63.67;99140.81;5054133;28;20021;-70
2022/12/25 02:16:03;;;;;;;10.85;7.95;;;;;;;19.45;63.70;99144.22;5054088;28;20032;-70
2022/12/25 02:18:41;;;;;;;11.00;7.38;;;;;;;19.42;63.55;99139.13;5053985;28;20033;-70
2022/12/25 02:21:21;;;;;;;9.80;6.97;;;;;;;19.41;63.45;99140.03;5054063;28;20017;-70
2022/12/25 02:23:53;;;;;;;9.65;6.30;;;;;;;19.42;63.44;99142.59;5054204;28;20028;-69
2022/12/25 02:26:39;;;;;;;10.75;7.25;;;;;;;19.42;63.56;99144.41;5053955;28;20040;-69
2022/12/25 02:29:35;;;;;;;10.02;6.30;;;;;;;19.41;63.59;99140.03;5054081;28;20056;-69
2022/12/25 02:32:06;;;;;;;10.32;7.40;;;;;;;19.44;63.55;99153.09;5053405;28;20476;-70
2022/12/25 02:34:44;;;;;;;8.32;6.15;;;;;;;19.41;63.44;99148.84;5053969;28;20112;-70
2022/12/25 02:37:23;;;;;;;9.40;7.32;;;;;;;19.41;63.47;99137.38;5053771;28;20389;-70
2022/12/25 02:39:58;;;;;;;9.27;6.55;;;;;;;19.44;63.62;99142.50;5053862;28;20052;-69
2022/12/25 03:07:43;;;;;;;8.23;5.82;;;;;;;19.39;63.66;99102.25;5053397;28;20166;-69
2022/12/25 03:13:19;;;;;;;7.47;5.63;;;;;;;19.38;63.80;99100.53;5053482;28;20032;-69
2022/12/25 03:18:32;;;;;;;8.18;5.97;;;;;;;19.41;63.64;99084.47;5053241;28;20040;-69
2022/12/25 03:31:10;;;;;;;8.00;4.50;;;;;;;19.39;63.19;99075.78;5053041;28;20031;-70
2022/12/25 03:32:11;;;;;;;6.85;5.13;;;;;;;19.39;63.11;99067.84;5052403;28;20112;-69
2022/12/25 03:35:24;;;;;;;9.30;4.80;;;;;;;19.40;63.16;99069.53;5052756;28;20094;-69
2022/12/25 04:36:21;;;;;;;4.85;3.20;;;;;;;19.31;62.69;99086.81;5010284;28;20049;-70
2022/12/25 04:38:47;;;;;;;4.80;2.78;;;;;;;19.29;62.87;99086.06;5010227;28;20034;-70
2022/12/25 04:41:13;;;;;;;5.07;3.00;;;;;;;19.30;62.64;99088.63;5010313;28;20407;-70
2022/12/25 04:43:38;;;;;;;4.78;3.20;;;;;;;19.30;62.98;99088.63;5009986;28;20038;-70
2022/12/25 04:46:04;;;;;;;4.53;3.20;;;;;;;19.30;62.67;99093.94;5010190;28;20034;-70
2022/12/25 04:48:33;;;;;;;5.13;3.42;;;;;;;19.34;62.82;99101.66;5010092;28;20042;-70
2022/12/25 04:51:28;;;;;;;4.63;3.30;;;;;;;19.30;62.80;99099.22;4993896;28;20263;-70
2022/12/25 04:53:53;;;;;;;5.75;3.50;;;;;;;19.29;62.76;99108.09;4966093;28;20441;-70
2022/12/25 04:56:20;;;;;;;6.93;3.30;;;;;;;19.30;62.92;99123.03;5004590;28;20112;-71
2022/12/25 04:58:46;;;;;;;5.50;3.35;;;;;;;19.31;62.89;99127.38;5009802;28;20108;-69
2022/12/25 05:01:12;;;;;;;4.80;3.20;;;;;;;19.31;62.89;99137.94;5010145;28;20034;-70
2022/12/25 05:03:38;;;;;;;6.10;3.35;;;;;;;19.31;63.02;99153.81;5010061;28;20030;-70
2022/12/25 05:06:05;;;;;;;4.95;2.90;;;;;;;19.31;63.05;99159.13;5009929;28;20041;-70
2022/12/25 05:08:33;;;;;;;5.20;3.30;;;;;;;19.31;63.18;99174.13;5010191;28;20030;-69
2022/12/25 05:11:03;;;;;;;6.15;3.10;;;;;;;19.31;63.11;99180.28;5010228;28;20030;-70
2022/12/25 05:13:29;;;;;;;5.65;3.25;;;;;;;19.30;63.13;99183.88;5034168;28;20033;-70
2022/12/25 05:15:54;;;;;;;5.18;3.08;;;;;;;19.32;62.97;99181.97;5055331;28;20090;-71
2022/12/25 05:18:20;;;;;;;5.05;3.33;;;;;;;19.37;63.14;99191.44;5055299;28;20044;-70
2022/12/25 05:20:52;;;;;;;5.00;3.03;;;;;;;19.35;63.04;99190.66;5055207;28;20532;-70
2022/12/25 05:23:18;;;;;;;5.15;3.28;;;;;;;19.35;63.16;99196.81;5055329;28;20159;-70
2022/12/25 05:25:43;;;;;;;5.78;2.80;;;;;;;19.32;63.16;99203.16;5055064;28;20143;-70
2022/12/25 05:28:09;;;;;;;4.68;2.80;;;;;;;19.32;62.89;99208.44;5054849;28;20032;-70
2022/12/25 05:30:34;;;;;;;6.25;3.10;;;;;;;19.35;63.09;99203.91;5055192;28;20133;-70
2022/12/25 05:33:00;;;;;;;4.38;2.72;;;;;;;19.36;62.88;99218.84;5054779;28;20029;-69
2022/12/25 05:35:25;;;;;;;4.68;2.80;;;;;;;19.37;62.85;99223.19;5054973;28;20041;-69
2022/12/25 05:37:51;;;;;;;5.22;2.95;;;;;;;19.35;63.03;99223.28;5054998;28;20025;-69
2022/12/25 05:40:16;;;;;;;4.25;2.58;;;;;;;19.38;63.01;99232.84;5054896;28;20032;-70
2022/12/25 05:42:42;;;;;;;5.45;3.00;;;;;;;19.38;62.94;99240.78;5054478;28;20108;-70
2022/12/25 05:45:08;;;;;;;4.18;2.67;;;;;;;19.39;63.03;99234.53;5054714;28;20037;-70
2022/12/25 05:47:34;;;;;;;5.00;3.08;;;;;;;19.35;63.20;99233.88;5054654;28;20032;-70
2022/12/25 05:49:59;;;;;;;4.90;2.88;;;;;;;19.35;63.13;99222.41;5054687;28;20443;-69
2022/12/25 05:52:25;;;;;;;5.47;2.88;;;;;;;19.33;63.15;99233.09;5054669;28;20056;-70
2022/12/25 05:54:50;;;;;;;4.95;3.00;;;;;;;19.32;63.04;99229.59;5054327;28;20108;-68
2022/12/25 05:57:15;;;;;;;5.32;3.15;;;;;;;19.34;63.22;99236.59;5054442;28;20021;-69
2022/12/25 05:59:41;;;;;;;5.45;2.90;;;;;;;19.35;63.25;99243.59;5054551;28;20029;-70
2022/12/25 06:02:06;;;;;;;5.00;3.17;;;;;;;19.35;63.03;99240.94;5054520;28;20072;-69
2022/12/25 06:04:32;;;;;;;5.03;3.13;;;;;;;19.35;63.27;99255.03;5054609;28;20025;-70
2022/12/25 06:06:57;;;;;;;4.68;2.72;;;;;;;19.35;63.27;99259.47;5054352;28;20033;-70
2022/12/25 06:09:22;;;;;;;4.47;3.08;;;;;;;19.35;63.21;99255.03;5052445;28;20629;-70
2022/12/25 06:11:48;;;;;;;5.05;3.03;;;;;;;19.34;63.30;99252.47;5054378;28;20028;-69
2022/12/25 06:14:15;;;;;;;5.32;3.25;;;;;;;19.38;63.16;99251.34;5054480;28;20120;-70
2022/12/25 06:16:40;;;;;;;4.50;2.80;;;;;;;19.34;63.21;99268.34;5054174;28;20049;-69
2022/12/25 06:19:06;;;;;;;4.43;2.80;;;;;;;19.37;63.13;99257.59;5054234;28;20036;-70
2022/12/25 06:21:31;;;;;;;4.50;2.58;;;;;;;19.35;63.21;99264.75;5053486;28;20078;-69
2022/12/25 06:23:59;;;;;;;5.43;3.15;;;;;;;19.34;63.23;99266.56;5053551;28;20033;-68
2022/12/25 06:26:24;;;;;;;5.25;2.60;;;;;;;19.36;63.40;99266.47;5052972;28;20025;-69
2022/12/25 06:28:50;;;;;;;5.45;2.80;;;;;;;19.36;63.25;99272.59;5053996;28;20154;-70
2022/12/25 06:31:18;;;;;;;4.95;2.95;;;;;;;19.37;63.19;99273.47;5054008;28;20029;-70
2022/12/25 06:33:43;;;;;;;4.72;3.05;;;;;;;19.32;63.01;99266.63;5053889;28;20016;-70
2022/12/25 06:36:12;;;;;;;5.47;2.72;;;;;;;19.31;62.99;99264.06;5053969;28;20378;-70
2022/12/25 06:38:38;;;;;;;4.68;2.55;;;;;;;19.34;63.12;99263.91;5053428;28;20109;-70
2022/12/25 06:41:11;;;;;;;4.25;2.80;;;;;;;19.36;63.27;99255.91;5053896;28;20116;-69
2022/12/25 06:43:37;;;;;;;4.15;2.58;;;;;;;19.38;62.85;99259.28;5051966;28;20538;-70
2022/12/25 06:46:12;;;;;;;4.75;3.00;;;;;;;19.33;62.96;99251.63;5053602;28;20402;-70
2022/12/25 06:48:39;;;;;;;5.05;2.42;;;;;;;19.35;62.99;99256.81;5053705;28;20091;-70
2022/12/25 06:51:06;;;;;;;5.03;3.00;;;;;;;19.36;63.05;99246.16;5053594;28;20045;-68
2022/12/25 06:53:32;;;;;;;4.90;3.00;;;;;;;19.35;62.87;99248.88;5053123;28;20079;-70
2022/12/25 06:56:14;;;;;;;5.03;3.00;;;;;;;19.37;62.90;99257.59;5053535;28;20536;-70
2022/12/25 06:58:45;;;;;;;5.53;2.92;;;;;;;19.35;62.81;99262.97;5053486;28;20036;-71
2022/12/25 07:01:21;;;;;;;5.20;2.63;;;;;;;19.34;62.88;99263.06;5053541;28;20029;-70
2022/12/25 07:03:48;;;;;;;;;;;;;;;19.37;62.78;99268.19;5053666;28;20079;-70
2022/12/25 07:06:14;;;;;;;4.57;2.75;;;;;;;19.35;62.82;99259.47;5053089;28;20000;-70
2022/12/25 07:08:39;;;;;;;4.65;2.47;;;;;;;19.35;62.91;99255.03;5052556;28;20104;-69
2022/12/25 07:11:04;;;;;;;3.88;2.45;;;;;;;19.32;62.72;99266.63;5053335;28;20107;-69
2022/12/25 07:13:30;;;;;;;4.68;3.22;;;;;;;19.33;62.93;99270.16;5053195;28;20021;-70
2022/12/25 07:15:57;;;;;;;4.60;2.72;;;;;;;19.32;62.90;99261.34;5053030;28;20171;-69
2022/12/25 07:18:22;;;;;;;5.03;2.70;;;;;;;19.31;62.97;99275.53;5053074;28;20029;-70
2022/12/25 07:20:47;;;;;;;4.63;2.42;;;;;;;19.33;63.02;99275.44;5053022;28;20543;-70
2022/12/25 07:23:13;;;;;;;4.65;2.95;;;;;;;19.32;62.61;99266.63;5052669;28;20032;-70
2022/12/25 07:25:38;;;;;;;5.32;3.05;;;;;;;19.31;62.82;99257.00;5053015;28;20425;-70
2022/12/25 07:28:04;;;;;;;4.75;2.53;;;;;;;19.31;62.78;99253.50;5053043;28;20029;-69
2022/12/25 07:30:29;;;;;;;4.47;2.65;;;;;;;19.32;62.76;99250.75;5053076;28;20029;-69
2022/12/25 07:32:55;;;;;;;4.93;2.92;;;;;;;19.29;62.92;99255.38;5052759;28;20108;-69
2022/12/25 07:35:21;;;;;;;4.50;2.75;;;;;;;19.31;62.77;99259.66;5052832;28;20112;-70
2022/12/25 07:37:46;;;;;;;5.15;3.10;;;;;;;19.31;62.75;99254.34;5052389;28;20064;-70
2022/12/25 07:40:11;;;;;;;4.63;2.67;;;;;;;19.34;62.65;99260.41;5051619;28;20017;-70
2022/12/25 07:42:37;;;;;;;5.20;3.42;;;;;;;19.32;62.49;99261.34;5052742;28;20025;-70
2022/12/25 07:45:03;;;;;;;4.88;2.90;;;;;;;19.32;62.56;99271.06;5052554;28;20033;-70
2022/12/25 07:47:29;;;;;;;4.00;2.75;;;;;;;19.31;62.43;99259.66;5052597;28;20033;-70
2022/12/25 07:49:54;;;;;;;4.05;2.80;;;;;;;19.32;62.29;99255.19;5052690;28;20055;-70
2022/12/25 07:52:19;;;;;;;4.55;2.90;;;;;;;19.27;62.57;99263.41;5052219;28;20404;-70
2022/12/25 07:54:45;;;;;;;4.82;3.08;;;;;;;19.30;62.35;99278.25;5052609;28;20477;-69
2022/12/25 07:57:10;;;;;;;5.50;3.05;;;;;;;19.28;62.36;99288.91;5052249;28;20113;-70
2022/12/25 07:59:35;;;;;;;4.30;2.47;;;;;;;19.30;62.10;99284.41;5052518;28;20025;-70
2022/12/25 08:02:01;;;;;;;5.10;2.90;;;;;;;19.28;62.36;99296.84;5052426;28;20028;-70
2022/12/25 08:04:26;;;;;;;4.65;2.92;;;;;;;19.29;62.33;99298.56;5052580;28;20029;-70
2022/12/25 08:06:52;;;;;;;4.03;2.70;;;;;;;19.28;62.52;99307.44;5052095;28;20539;-69
2022/12/25 08:09:17;;;;;;;4.57;2.60;;;;;;;19.29;62.56;99298.56;5052203;28;20021;-69
2022/12/25 08:11:46;;;;;;;4.53;2.70;;;;;;;19.27;62.31;99300.44;5052381;28;20025;-69
2022/12/25 08:14:12;;;;;;;4.43;2.80;;;;;;;19.24;62.20;99305.91;5052377;28;20049;-69
2022/12/25 08:16:40;;;;;;;4.10;2.70;;;;;;;19.26;62.46;99319.91;5052238;28;20064;-69
2022/12/25 08:19:06;;;;;;;4.57;2.58;;;;;;;19.24;62.20;99310.34;5052249;28;20075;-70
2022/12/25 08:21:32;;;;;;;4.15;2.45;;;;;;;19.27;62.05;99326.88;5051771;28;20021;-70
2022/12/25 08:23:57;;;;;;;5.03;2.88;;;;;;;19.28;62.08;99339.16;5052303;28;20024;-69
2022/12/25 08:26:23;;;;;;;4.50;2.72;;;;;;;19.29;62.03;99335.63;5052154;28;20037;-70
2022/12/25 08:28:49;;;;;;;4.80;2.90;;;;;;;19.27;62.29;99356.00;5052361;28;20021;-70
2022/12/25 08:31:21;;;;;;;4.18;2.50;;;;;;;19.28;62.26;99343.63;5052189;28;20481;-70
2022/12/25 08:33:48;;;;;;;5.05;3.22;;;;;;;19.27;62.09;99345.41;5051062;28;20100;-70
2022/12/25 08:36:15;;;;;;;4.20;2.55;;;;;;;19.26;61.92;99341.06;5051438;28;20187;-70
2022/12/25 08:38:41;;;;;;;5.45;2.92;;;;;;;19.26;62.29;99351.66;5050818;28;20088;-70
2022/12/25 08:41:09;;;;;;;4.47;2.70;;;;;;;19.24;62.32;99345.59;5054129;28;20029;-70
2022/12/25 08:43:34;;;;;;;4.43;3.10;;;;;;;19.26;62.29;99338.41;5055266;28;20099;-70
2022/12/25 08:46:00;;;;;;;5.13;2.88;;;;;;;19.26;62.18;99343.72;5071630;28;20031;-71
2022/12/25 08:48:25;;;;;;;4.60;2.88;;;;;;;19.23;62.11;99349.16;5062273;28;20025;-70
2022/12/25 08:50:52;;;;;;;4.47;2.92;;;;;;;19.27;62.28;99347.22;5062454;28;20393;-71
2022/12/25 08:53:19;;;;;;;3.90;2.40;;;;;;;19.24;62.04;99342.94;5066443;28;20108;-70
2022/12/25 08:55:45;;;;;;;5.45;3.00;;;;;;;19.25;62.16;99349.06;5069696;28;20032;-70
2022/12/25 08:58:11;;;;;;;4.38;2.63;;;;;;;19.21;62.24;99347.56;5065799;28;20396;-70
2022/12/25 09:00:36;;;;;;;4.18;2.78;;;;;;;19.24;62.12;99355.31;5066860;28;20020;-70
2022/12/25 09:03:02;;;;;;;6.38;3.10;;;;;;;19.25;61.97;99360.53;5067210;28;20067;-70
2022/12/25 09:05:27;;;;;;;6.43;3.55;;;;;;;19.24;62.06;99358.81;5064884;28;20438;-71
2022/12/25 09:07:53;;;;;;;4.90;2.92;;;;;;;19.23;62.17;99366.84;5067009;28;20017;-70
2022/12/25 09:10:18;;;;;;;5.30;3.15;;;;;;;19.22;62.07;99365.97;5066047;28;20029;-70
2022/12/25 09:12:44;;;;;;;5.60;3.50;;;;;;;19.24;62.10;99363.25;5064514;28;20025;-70
2022/12/25 09:15:09;;;;;;;4.82;2.67;;;;;;;19.25;62.00;99359.66;5067965;28;20029;-70
2022/12/25 09:17:35;;;;;;;5.88;2.97;;;;;;;19.25;62.18;99371.09;5062278;28;20045;-69
2022/12/25 09:20:00;;;;;;;5.85;3.10;;;;;;;19.25;61.96;99376.41;5063541;28;20032;-70
2022/12/25 09:22:26;;;;;;;5.97;3.63;;;;;;;19.23;62.38;99372.97;5054671;28;20021;-70
2022/12/25 09:24:51;;;;;;;4.63;3.10;;;;;;;19.23;62.02;99378.25;5072424;28;20024;-70
2022/12/25 09:27:17;;;;;;;5.93;3.17;;;;;;;19.23;62.18;99383.53;5068849;28;20111;-70
2022/12/25 09:29:42;;;;;;;5.50;3.13;;;;;;;19.23;61.98;99388.84;5066444;28;20032;-69
2022/12/25 09:32:08;;;;;;;8.55;3.80;;;;;;;19.22;62.03;99381.84;5067884;28;20021;-70
2022/12/25 09:34:34;;;;;;;5.07;3.22;;;;;;;19.23;62.43;99377.41;5068415;28;20111;-70
2022/12/25 09:36:59;;;;;;;5.22;3.17;;;;;;;19.23;62.25;99372.97;5067540;28;20396;-70
2022/12/25 09:39:25;;;;;;;7.25;3.38;;;;;;;19.22;62.22;99371.25;5067631;28;20021;-70
2022/12/25 09:41:59;;;;;;;5.00;3.00;;;;;;;19.23;62.18;99367.66;5066569;28;20021;-68
2022/12/25 09:44:35;;;;;;;4.75;3.15;;;;;;;19.23;62.00;99383.53;5062760;28;20562;-69
2022/12/25 09:47:21;;;;;;;5.35;3.30;;;;;;;19.23;62.00;99380.91;5065427;28;20474;-69
2022/12/25 09:49:57;;;;;;;4.82;2.97;;;;;;;19.23;62.07;99372.97;5057340;28;20040;-70
2022/12/25 09:52:34;;;;;;;6.17;3.20;;;;;;;19.21;61.87;99380.13;5064432;28;20046;-68
2022/12/25 09:55:11;;;;;;;5.00;3.22;;;;;;;19.21;61.87;99380.13;5063415;28;20561;-70
2022/12/25 09:57:37;;;;;;;5.05;3.38;;;;;;;19.23;61.95;99380.91;5053663;28;20094;-70
2022/12/25 10:00:03;;;;;;;6.10;3.03;;;;;;;19.22;62.01;99381.84;5050883;28;20033;-69
2022/12/25 10:03:05;;;;;;;5.32;2.90;;;;;;;19.22;61.77;99381.84;5048806;28;20568;-70
2022/12/25 10:05:45;;;;;;;6.50;3.45;;;;;;;19.22;61.78;99394.22;5054995;28;20048;-70
2022/12/25 10:08:36;;;;;;;5.55;2.92;;;;;;;19.19;61.89;99392.59;5044375;28;20036;-70
2022/12/25 10:11:16;;;;;;;6.32;2.90;;;;;;;19.21;61.74;99389.88;5037667;28;20017;-70
2022/12/25 10:14:12;;;;;;;5.38;2.85;;;;;;;19.21;61.91;99396.00;5047211;28;20016;-70
2022/12/25 10:16:55;;;;;;;4.72;3.15;;;;;;;19.19;61.90;99392.59;5061606;28;20041;-69
2022/12/25 10:19:24;;;;;;;5.25;2.67;;;;;;;19.20;61.71;99391.66;5046733;28;20040;-70
2022/12/25 10:21:53;;;;;;;5.05;2.58;;;;;;;19.22;61.74;99392.41;5060397;28;20021;-69
2022/12/25 10:24:34;;;;;;;7.00;2.88;;;;;;;19.19;61.67;99379.38;5056603;28;20451;-70
2022/12/25 10:27:03;;;;;;;5.15;2.92;;;;;;;19.18;61.80;99383.81;5058781;28;20031;-70
2022/12/25 10:29:34;;;;;;;4.80;2.78;;;;;;;19.19;61.98;99382.03;5055953;28;20087;-70
2022/12/25 10:32:00;;;;;;;6.25;2.75;;;;;;;19.18;61.72;99382.97;5061226;28;20385;-70
2022/12/25 10:34:27;;;;;;;5.28;2.72;;;;;;;19.20;61.79;99402.25;5066196;28;20025;-70
2022/12/25 10:36:53;;;;;;;5.32;2.60;;;;;;;19.20;61.79;99383.72;5062406;28;20392;-71
2022/12/25 10:39:21;;;;;;;5.40;3.10;;;;;;;19.19;61.92;99387.31;5052378;28;20121;-70
2022/12/25 10:42:02;;;;;;;4.85;2.88;;;;;;;19.18;61.69;99393.56;5061313;28;20086;-70
2022/12/25 10:44:28;;;;;;;8.27;3.47;;;;;;;19.17;62.17;99383.88;5063950;28;20020;-71
2022/12/25 10:46:57;;;;;;;5.32;3.08;;;;;;;19.19;62.10;99388.16;5062724;28;20108;-72
2022/12/25 10:49:35;;;;;;;5.95;3.22;;;;;;;19.18;62.12;99382.97;5064293;28;20400;-70
2022/12/25 10:52:02;;;;;;;6.45;3.80;;;;;;;19.18;62.11;99385.63;5061231;28;20017;-70
2022/12/25 10:54:31;;;;;;;8.77;3.40;;;;;;;19.19;62.03;99371.44;5059062;28;20028;-69
2022/12/25 10:56:58;;;;;;;7.40;4.00;;;;;;;19.21;62.15;99368.72;5067124;28;20028;-69
2022/12/25 10:59:26;;;;;;;6.45;3.08;;;;;;;19.17;62.11;99379.47;5057897;28;20021;-68
2022/12/25 11:01:53;;;;;;;5.78;2.97;;;;;;;19.20;61.90;99383.72;5067544;28;20392;-67
2022/12/25 11:04:27;;;;;;;10.70;3.70;;;;;;;19.24;62.50;99390.56;5070046;28;20028;-67
2022/12/25 11:07:19;;;;;;;5.97;3.35;;;;;;;19.23;62.46;99383.53;5055424;28;20036;-79
2022/12/25 11:09:54;;;;;;;6.57;2.92;;;;;;;19.22;62.44;99381.84;5064143;28;20131;-77
2022/12/25 11:12:27;;;;;;;7.97;3.30;;;;;;;19.20;62.21;99383.72;5047686;28;20097;-79
2022/12/25 11:14:55;;;;;;;6.30;3.55;;;;;;;19.19;62.11;99376.72;5072246;28;20016;-78
2022/12/25 11:17:24;;;;;;;5.75;2.90;;;;;;;19.20;62.11;99378.44;5064278;28;20049;-77
2022/12/25 11:19:58;;;;;;;8.57;3.83;;;;;;;19.22;62.08;99381.84;5052614;28;20108;-78
2022/12/25 11:22:24;;;;;;;6.85;3.65;;;;;;;19.21;62.14;99389.88;5052427;28;20025;-77
2022/12/25 11:24:50;;;;;;;6.25;3.33;;;;;;;19.22;62.06;99381.84;5051431;28;20535;-77
2022/12/25 11:27:33;;;;;;;9.02;3.10;;;;;;;19.19;61.92;99382.03;5051497;28;20033;-78
2022/12/25 11:30:02;;;;;;;7.30;3.53;;;;;;;19.19;62.15;99372.28;5052530;28;20036;-78
2022/12/25 11:32:38;;;;;;;7.18;3.95;;;;;;;19.18;61.96;99372.38;5051760;28;20017;-78
2022/12/25 11:35:11;;;;;;;6.47;3.88;;;;;;;19.19;61.95;99376.72;5052837;28;20517;-77
2022/12/25 11:37:42;;;;;;;5.53;3.30;;;;;;;19.21;61.90;99374.00;5052909;28;20128;-77
2022/12/25 11:40:22;;;;;;;6.03;3.42;;;;;;;19.18;61.64;99373.22;5052709;28;20031;-78
2022/12/25 11:42:59;;;;;;;5.43;3.38;;;;;;;19.17;61.63;99375.94;5051395;28;20061;-77
2022/12/25 11:45:31;;;;;;;5.53;3.55;;;;;;;19.18;61.79;99369.75;5052391;28;20374;-78
2022/12/25 11:48:19;;;;;;;7.30;3.92;;;;;;;19.18;61.85;99365.28;5052465;28;20113;-77
2022/12/25 11:50:58;;;;;;;6.30;3.00;;;;;;;19.15;61.65;99359.31;5045851;28;20057;-78
2022/12/25 11:53:26;;;;;;;5.57;3.60;;;;;;;19.17;61.72;99368.88;5052575;28;20032;-77
2022/12/25 11:55:58;;;;;;;5.32;3.30;;;;;;;19.17;61.69;99362.72;5051406;28;20036;-77
2022/12/25 11:58:30;;;;;;;5.18;3.05;;;;;;;19.18;61.84;99364.44;5052180;28;20053;-77
2022/12/25 12:00:58;;;;;;;6.25;3.45;;;;;;;19.16;61.77;99361.03;5052447;28;20068;-78
2022/12/25 12:03:29;;;;;;;6.25;3.25;;;;;;;19.16;61.49;99350.44;5052131;28;20033;-77
2022/12/25 12:06:09;;;;;;;5.78;3.28;;;;;;;19.17;61.67;99344.22;5050965;28;20025;-77
2022/12/25 12:08:35;;;;;;;5.25;3.30;;;;;;;19.17;61.83;99346.84;5052224;28;20040;-78
2022/12/25 12:11:15;;;;;;;6.50;3.30;;;;;;;19.18;61.75;99338.00;5050926;28;20037;-78
2022/12/25 12:13:53;;;;;;;7.10;3.47;;;;;;;19.18;61.72;99327.41;5050656;28;20094;-78
2022/12/25 12:16:18;;;;;;;5.07;3.03;;;;;;;19.13;61.50;99318.88;5052043;28;20045;-78
2022/12/25 12:18:44;;;;;;;6.57;3.35;;;;;;;19.14;61.67;99320.59;5052094;28;20025;-78
2022/12/25 12:21:29;;;;;;;4.30;3.22;;;;;;;19.13;61.68;99318.88;5052238;28;20495;-77
2022/12/25 12:24:03;;;;;;;5.50;2.80;;;;;;;19.13;61.37;99311.78;5054048;28;20029;-77
2022/12/25 12:26:36;;;;;;;5.55;3.40;;;;;;;19.13;61.65;99316.25;5055975;28;20033;-77
2022/12/25 12:29:04;;;;;;;6.15;3.60;;;;;;;19.15;61.46;99317.00;5056507;28;20082;-78
2022/12/25 12:31:44;;;;;;;5.88;3.40;;;;;;;19.15;61.56;99311.72;5056309;28;20025;-78
2022/12/25 12:34:41;;;;;;;6.15;3.78;;;;;;;19.13;61.52;99318.88;5056197;28;20046;-77
2022/12/25 12:37:10;;;;;;;;;;;;;;;19.15;61.42;99319.66;5056362;28;20553;-79
2022/12/25 12:39:38;;;;;;;4.70;2.83;;;;;;;19.09;61.44;99314.69;5056062;28;19916;-78
2022/12/25 12:42:19;;;;;;;4.82;3.10;;;;;;;19.10;61.42;99319.91;5054357;28;20392;-78
2022/12/25 12:44:48;;;;;;;5.57;3.20;;;;;;;19.13;61.64;99313.59;5055993;28;20033;-77
2022/12/25 12:47:48;;;;;;;5.30;2.97;;;;;;;19.11;61.56;99326.03;5055660;28;20470;-77
2022/12/25 12:50:29;;;;;;;4.93;3.08;;;;;;;19.09;61.52;99327.91;5055926;28;20064;-77
2022/12/25 12:52:54;;;;;;;6.13;3.15;;;;;;;19.09;61.51;99322.63;5054450;28;20501;-78
2022/12/25 12:55:32;;;;;;;6.68;3.45;;;;;;;19.10;61.62;99319.03;5055333;28;20151;-77
2022/12/25 12:57:59;;;;;;;6.47;3.22;;;;;;;19.11;61.58;99323.38;5055394;28;20028;-78
2022/12/25 13:00:43;;;;;;;5.18;3.38;;;;;;;19.08;61.49;99323.56;5055864;28;20488;-78
2022/12/25 13:03:11;;;;;;;8.05;3.40;;;;;;;19.12;61.27;99327.75;5057275;28;20033;-78
2022/12/25 13:05:44;;;;;;;5.70;3.72;;;;;;;19.10;61.58;99324.31;5057091;28;20082;-77
2022/12/25 13:08:21;;;;;;;6.22;3.25;;;;;;;19.08;61.75;99328.84;5055576;28;20039;-77
2022/12/25 13:10:51;;;;;;;6.95;3.72;;;;;;;19.08;61.64;99332.34;5057069;28;20029;-77
2022/12/25 13:13:22;;;;;;;4.78;3.35;;;;;;;19.09;61.64;99339.38;5056517;28;20078;-77
2022/12/25 13:15:49;;;;;;;5.63;3.42;;;;;;;19.10;61.80;99340.19;5055163;28;20362;-78
2022/12/25 13:18:15;;;;;;;5.47;3.53;;;;;;;19.10;61.41;99337.56;5054042;28;20053;-77
2022/12/25 13:20:53;;;;;;;6.72;3.53;;;;;;;19.11;61.54;99336.59;5054249;28;20033;-77
2022/12/25 13:23:29;;;;;;;5.20;3.67;;;;;;;19.10;61.60;99340.19;5054003;28;20078;-77